Kelvedon, United Kingdom
Current Conditions -  °F | °C
As of 8:20 AM on Saturday 29 Nov 2014 (Local Time) from EGMC Reporting Station
Clear Clear  
Wind Chill: 45°   Ceiling: Unl
Heat Index: 48°   Visibility: 5mi
Dew Point: 45°   Wind: 7mph
Humidity: 87%   Direction: 110°ESE
Pressure: 29.83"   Gusts: NA
Location:  51.84°N, 0.71°E
Report Text: EGMC 290820Z 11006KT 8000 NSC 09/07 Q1010
Loading
Personal Weather Stations






























Interactive Weather Map New forecast layout! Learn more

10-Day Weather Forecast

Advertisements
Track Severe Weather on mobile